Etusivu
METAR-TAF:

METAR-TAF

Lentoasemat :

Blytheville Municipal Airport

Blytheville, Arkansas, Yhdysvallat

Leveyspiiri: 35-56-20N, Pituuspiiri: 089-49-57W, korkeus merenpinnasta: 78 m

Tämänhetkinen sää

Tämä raportti tehtiin 23 minuuttia sitten, kello 03.53 UTC
Tuuli 12 kn pohjoisesta
Lämpötila 10°C
Kosteus 82%
Ilmanpaine 1018 hPa
Näkyvyys: 14.5 km
Pilvistä 9500 ft:n korkeudessa

METAR: KHKA 050353Z AUTO 01012KT 9SM OVC095 10/07 A3007 RMK AO2 SLP182 T01000067 $

Aika: 23:16 (04:16 UTC)


TAF: puuttuu

Säähavainnot ja -ennusteet yli 4000 lentoasemalta (METAR- ja TAF-raportit).

Käytössä olevat sääasemat on merkitty karttaan keltaisilla ja punaisilla pisteillä.

Aseta hiiri pisteen päälle nähdäksesi sääaseman nimen.

Klikkaa sitten nähdäksesi säähavainnot ja -ennusteet.

Kartan vaihtaminen: klikkaa mustalla rastilla varustettuja vihreitä pisteitä, niin voit zoomata sisään; viivalla varustettua vihreää pistettä, niin voit zoomata ulos tai vihreitä nuolia, niin pääset viereisille kartoille.


METAR-TAF: